Honea Path, South Carolina
Current Conditions -  °F | °C
As of 8:56 AM on Friday 31 Oct 2014 (Local Time) from KAND Reporting Station
Clear Clear  
Wind Chill: 44°   Ceiling: Unl
Heat Index: 48°   Visibility: 10mi
Dew Point: 41°   Wind: 9mph
Humidity: 77%   Direction: 60°ENE
Pressure: 29.95"   Gusts: NA
Location:  34.45°N, 82.39°W
Report Text: KAND 311256Z AUTO 06008KT 10SM CLR 09/05 A2995 RMK AO2 SLP140 T00890050
Loading
Personal Weather Stations






























Interactive Weather Map New forecast layout! Learn more

10-Day Weather Forecast

Advertisements
Track Severe Weather on mobile